Time;durP1;ratioP1;P1;durP2;ratioP2;P2;SDS_P1;SDS_P2;PMS_P1;PMS_P2;Temp;Humidity;BMP_temperature;BMP_pressure;BME280_temperature;BME280_humidity;BME280_pressure;Samples;Min_cycle;Max_cycle;Signal;HPM_P1;HPM_P2
2022/09/09 00:00:47;;;;;;;;;;;;;;;14.61;91.51;100801.66;1979824;29;19925;-69
2022/09/09 00:01:53;;;;;;;;;;;;;;;14.59;91.84;100798.53;1975545;29;19929;-70
2022/09/09 00:03:03;;;;;;;;;;;;;;;14.60;91.30;100800.88;1972834;29;19926;-70
2022/09/09 00:04:10;;;;;;;;;;;;;;;14.60;91.15;100800.09;1973126;30;19933;-69
2022/09/09 00:05:18;;;;;;;;;;;;;;;14.58;91.31;100799.69;1981509;29;19980;-69
2022/09/09 00:06:23;;;;;;;;;;;;;;;14.55;91.54;100801.22;1978417;29;19941;-70
2022/09/09 00:07:33;;;;;;;;;;;;;;;14.54;91.13;100798.84;1979031;29;19929;-70
2022/09/09 00:08:42;;;;;;;;;;;;;;;14.49;91.34;100796.47;1970622;30;19926;-69
2022/09/09 00:09:48;;;;;;;;;;;;;;;14.49;91.20;100799.19;1970727;30;20416;-69
2022/09/09 00:10:54;;;;;;;;;;;;;;;14.44;91.68;100796.78;1964787;30;20399;-70
2022/09/09 00:11:59;;;;;;;;;;;;;;;14.41;91.53;100800.97;1965628;30;19991;-68
2022/09/09 00:13:06;;;;;;;;;;;;;;;14.39;91.71;100799.81;1980226;29;20015;-68
2022/09/09 00:14:14;;;;;;;;;;;;;;;14.38;91.52;100798.25;1974029;30;19963;-68
2022/09/09 00:15:19;;;;;;;;;;;;;;;14.35;91.46;100796.25;1971901;30;20020;-68
2022/09/09 00:16:23;;;;;;;;;;;;;;;14.32;91.62;100791.53;1976006;29;19932;-68
2022/09/09 00:17:33;;;;;;;;;;;;;;;14.31;91.25;100792.69;1964887;30;20068;-68
2022/09/09 00:18:48;;;;;;;;;;;;;;;14.30;91.65;100791.13;1972548;30;19929;-68
2022/09/09 00:19:55;;;;;;;;;;;;;;;14.27;91.27;100791.88;1969721;30;19930;-68
2022/09/09 00:21:02;;;;;;;;;;;;;;;14.28;91.51;100788.78;1966148;30;20013;-69
2022/09/09 00:22:13;;;;;;;;;;;;;;;14.24;90.94;100787.16;1972581;30;19951;-68
2022/09/09 00:23:21;;;;;;;;;;;;;;;14.25;91.09;100784.09;1977331;29;20366;-68
2022/09/09 00:24:26;;;;;;;;;;;;;;;14.25;91.28;100777.88;1972054;30;20028;-68
2022/09/09 00:25:34;;;;;;;;;;;;;;;14.23;91.11;100778.22;1971810;30;19936;-69
2022/09/09 00:26:38;;;;;;;;;;;;;;;14.23;91.58;100780.13;1979737;29;19925;-68
2022/09/09 00:27:42;;;;;;;;;;;;;;;14.23;90.98;100774.69;1982243;29;20019;-68
2022/09/09 00:28:48;;;;;;;;;;;;;;;14.22;91.11;100778.56;1973308;30;19952;-69
2022/09/09 00:29:54;;;;;;;;;;;;;;;14.20;91.17;100787.09;1968498;30;19930;-69
2022/09/09 00:30:57;;;;;;;;;;;;;;;14.21;90.94;100779.72;1973583;29;19985;-68
2022/09/09 00:32:03;;;;;;;;;;;;;;;14.18;91.31;100775.81;1972933;30;19926;-69
2022/09/09 00:33:11;;;;;;;;;;;;;;;14.19;90.84;100777.34;1979657;30;19929;-70
2022/09/09 00:34:17;;;;;;;;;;;;;;;14.18;91.47;100777.72;1979715;29;20432;-68
2022/09/09 00:35:22;;;;;;;;;;;;;;;14.16;91.04;100774.63;1975568;29;20425;-69
2022/09/09 00:36:28;;;;;;;;;;;;;;;14.15;91.18;100783.88;1964635;30;20470;-68
2022/09/09 00:37:31;;;;;;;;;;;;;;;14.10;90.70;100779.56;1961464;30;19930;-68
2022/09/09 00:38:36;;;;;;;;;;;;;;;14.11;90.86;100785.78;1964324;30;19933;-69
2022/09/09 00:39:41;;;;;;;;;;;;;;;14.11;90.82;100772.22;1972287;30;19926;-68
2022/09/09 00:40:49;;;;;;;;;;;;;;;14.10;91.05;100773.34;1978580;29;19929;-68
2022/09/09 00:41:58;;;;;;;;;;;;;;;14.09;90.13;100779.94;1980953;29;20346;-68
2022/09/09 00:43:10;;;;;;;;;;;;;;;14.08;90.48;100772.94;1979563;29;19933;-69
2022/09/09 00:44:20;;;;;;;;;;;;;;;14.07;90.27;100776.78;1967234;30;20601;-69
2022/09/09 00:45:34;;;;;;;;;;;;;;;14.05;90.63;100776.38;1966642;30;19941;-69
2022/09/09 00:46:45;;;;;;;;;;;;;;;14.04;90.39;100778.31;1964907;30;19929;-69
2022/09/09 00:47:51;;;;;;;;;;;;;;;14.05;90.27;100773.66;1965422;30;19930;-69
2022/09/09 00:48:57;;;;;;;;;;;;;;;14.04;90.82;100766.66;1972136;29;19930;-68
2022/09/09 00:50:02;;;;;;;;;;;;;;;14.05;90.77;100776.38;1978060;29;20279;-67
2022/09/09 00:51:10;;;;;;;;;;;;;;;14.03;90.83;100771.31;1971805;30;19926;-68
2022/09/09 00:52:23;;;;;;;;;;;;;;;14.02;90.83;100771.66;1962223;30;19984;-68
2022/09/09 00:53:33;;;;;;;;;;;;;;;14.01;90.75;100761.97;1966672;30;19934;-68
2022/09/09 00:54:45;;;;;;;;;;;;;;;14.00;90.61;100768.53;1973075;30;20033;-68
2022/09/09 00:55:49;;;;;;;;;;;;;;;13.99;90.46;100775.09;1972817;30;19930;-67
2022/09/09 00:56:58;;;;;;;;;;;;;;;13.98;90.60;100768.91;1976262;30;19933;-68
2022/09/09 00:58:00;;;;;;;;;;;;;;;13.98;90.34;100773.56;1973034;29;19940;-68
2022/09/09 00:59:05;;;;;;;;;;;;;;;13.98;90.36;100778.97;1972936;30;19937;-69
2022/09/09 01:00:19;;;;;;;;;;;;;;;13.97;90.36;100772.00;1973873;29;19933;-70
2022/09/09 01:01:22;;;;;;;;;;;;;;;13.95;91.14;100783.22;1974025;29;20385;-69
2022/09/09 01:02:28;;;;;;;;;;;;;;;13.95;90.64;100768.84;1979661;30;19925;-69
2022/09/09 01:03:34;;;;;;;;;;;;;;;13.94;90.60;100767.28;1984539;29;20366;-69
2022/09/09 01:04:37;;;;;;;;;;;;;;;13.95;90.41;100768.84;1971752;30;19987;-69
2022/09/09 01:05:44;;;;;;;;;;;;;;;13.94;90.29;100767.28;1960149;30;20049;-69
2022/09/09 01:06:52;;;;;;;;;;;;;;;13.95;90.02;100771.56;1953129;30;19974;-69
2022/09/09 01:07:55;;;;;;;;;;;;;;;13.96;90.27;100770.41;1958979;30;19984;-69
2022/09/09 01:09:11;;;;;;;;;;;;;;;13.96;90.79;100759.56;1971911;30;19933;-70
2022/09/09 01:10:21;;;;;;;;;;;;;;;13.95;90.43;100763.44;1979371;30;19993;-69
2022/09/09 01:11:25;;;;;;;;;;;;;;;13.96;90.26;100773.13;1976198;30;19969;-69
2022/09/09 01:12:36;;;;;;;;;;;;;;;13.95;90.69;100764.22;1971289;30;19968;-69
2022/09/09 01:13:38;;;;;;;;;;;;;;;13.95;90.60;100764.22;1967006;30;19929;-69
2022/09/09 01:14:47;;;;;;;;;;;;;;;13.95;90.48;100758.00;1964293;30;19930;-69
2022/09/09 01:15:53;;;;;;;;;;;;;;;13.95;90.44;100760.72;1963734;30;19933;-69
2022/09/09 01:17:02;;;;;;;;;;;;;;;13.94;90.60;100762.63;1966013;30;20415;-69
2022/09/09 01:18:05;;;;;;;;;;;;;;;13.93;90.10;100761.06;1968193;30;19933;-69
2022/09/09 01:19:16;;;;;;;;;;;;;;;13.94;90.25;100767.28;1951126;30;19926;-69
2022/09/09 01:20:22;;;;;;;;;;;;;;;13.92;90.63;100764.16;1964343;30;20458;-69
2022/09/09 01:21:37;;;;;;;;;;;;;;;13.90;89.95;100769.16;1974083;29;20577;-69
2022/09/09 01:22:43;;;;;;;;;;;;;;;13.93;89.43;100763.78;1967160;30;19975;-68
2022/09/09 01:23:58;;;;;;;;;;;;;;;13.92;89.07;100775.78;1963070;30;19926;-68
2022/09/09 01:25:19;;;;;;;;;;;;;;;13.93;90.20;100766.50;1959953;30;19945;-68
2022/09/09 01:26:59;;;;;;;;;;;;;;;13.92;90.03;100764.16;1960090;30;19977;-69
2022/09/09 01:28:03;;;;;;;;;;;;;;;13.92;89.67;100767.63;1967151;30;20003;-69
2022/09/09 01:29:08;;;;;;;;;;;;;;;13.94;89.88;100765.34;1971992;30;20555;-69
2022/09/09 01:30:13;;;;;;;;;;;;;;;13.95;89.57;100768.84;1965223;30;20009;-68
2022/09/09 01:31:20;;;;;;;;;;;;;;;13.95;90.00;100771.56;1964997;30;19930;-69
2022/09/09 01:32:38;;;;;;;;;;;;;;;13.96;89.96;100768.50;1959945;30;19930;-67
2022/09/09 01:33:41;;;;;;;;;;;;;;;13.97;90.01;100763.84;1965953;30;20685;-68
2022/09/09 01:34:43;;;;;;;;;;;;;;;13.97;89.84;100764.63;1969356;30;19937;-68
2022/09/09 01:35:50;;;;;;;;;;;;;;;14.00;90.15;100765.84;1969159;30;19929;-68
2022/09/09 01:36:58;;;;;;;;;;;;;;;14.00;90.33;100769.31;1965411;30;19930;-69
2022/09/09 01:38:00;;;;;;;;;;;;;;;14.03;90.90;100762.38;1964543;30;19987;-69
2022/09/09 01:39:03;;;;;;;;;;;;;;;14.03;90.37;100767.81;1968105;30;19929;-68
2022/09/09 01:40:06;;;;;;;;;;;;;;;14.03;90.21;100759.69;1970292;30;19925;-69
2022/09/09 01:41:10;;;;;;;;;;;;;;;14.05;90.04;100762.81;1963177;30;19926;-69
2022/09/09 01:42:21;;;;;;;;;;;;;;;14.04;89.86;100764.75;1969173;30;19941;-69
2022/09/09 01:43:23;;;;;;;;;;;;;;;14.07;89.99;100763.22;1971326;30;19940;-68
2022/09/09 01:44:26;;;;;;;;;;;;;;;14.07;89.94;100765.94;1964666;30;20745;-68
2022/09/09 01:45:28;;;;;;;;;;;;;;;14.08;89.61;100762.09;1974050;29;19934;-68
2022/09/09 01:46:31;;;;;;;;;;;;;;;14.10;89.92;100759.75;1972512;29;19987;-68
2022/09/09 01:47:34;;;;;;;;;;;;;;;14.11;90.18;100761.34;1965603;30;19977;-68
2022/09/09 01:48:44;;;;;;;;;;;;;;;14.12;90.58;100760.19;1961710;30;19934;-68
2022/09/09 01:49:46;;;;;;;;;;;;;;;14.15;90.24;100767.59;1957229;30;19931;-68
2022/09/09 01:50:56;;;;;;;;;;;;;;;14.16;90.31;100763.75;1963051;30;19926;-69
2022/09/09 01:51:58;;;;;;;;;;;;;;;14.16;90.14;100763.75;1970395;30;20441;-69
2022/09/09 01:53:06;;;;;;;;;;;;;;;14.16;90.20;100763.75;1971691;30;20399;-69
2022/09/09 01:54:08;;;;;;;;;;;;;;;14.17;90.15;100757.97;1966063;30;20454;-69
2022/09/09 01:55:11;;;;;;;;;;;;;;;14.20;90.39;100753.72;1973621;29;19925;-68
2022/09/09 01:56:27;;;;;;;;;;;;;;;14.20;90.37;100756.44;1964723;30;19937;-69
2022/09/09 01:57:34;;;;;;;;;;;;;;;14.20;90.14;100759.16;1966542;30;20535;-68
2022/09/09 01:58:44;;;;;;;;;;;;;;;14.19;89.66;100752.91;1964138;30;20025;-69
2022/09/09 01:59:53;;;;;;;;;;;;;;;14.19;89.90;100752.16;1959095;30;20420;-69
2022/09/09 02:01:01;;;;;;;;;;;;;;;14.18;89.87;100753.28;1961743;30;19991;-68
2022/09/09 02:02:09;;;;;;;;;;;;;;;14.16;89.94;100753.66;1967033;30;20375;-68
2022/09/09 02:03:20;;;;;;;;;;;;;;;14.17;89.78;100754.44;1963616;30;19926;-69
2022/09/09 02:04:36;;;;;;;;;;;;;;;14.15;89.81;100740.44;1958424;30;19937;-69
2022/09/09 02:05:45;;;;;;;;;;;;;;;14.12;89.55;100758.25;1951219;30;20392;-69
2022/09/09 02:06:57;;;;;;;;;;;;;;;14.10;89.78;100754.34;1963590;30;19995;-69
2022/09/09 02:08:05;;;;;;;;;;;;;;;14.08;90.18;100753.94;1961763;30;20400;-69
2022/09/09 02:09:19;;;;;;;;;;;;;;;14.07;89.28;100760.50;1959657;30;20389;-70
2022/09/09 02:10:24;;;;;;;;;;;;;;;14.06;89.39;100753.50;1965428;30;20406;-69
2022/09/09 02:11:39;;;;;;;;;;;;;;;14.06;89.73;100756.22;1965940;30;19981;-68
2022/09/09 02:12:52;;;;;;;;;;;;;;;14.06;89.83;100764.38;1960931;30;19926;-70
2022/09/09 02:13:57;;;;;;;;;;;;;;;14.04;89.91;100755.81;1963976;30;19925;-69
2022/09/09 02:15:02;;;;;;;;;;;;;;;14.04;89.93;100758.50;1963572;30;19925;-70
2022/09/09 02:16:14;;;;;;;;;;;;;;;14.02;89.32;100764.31;1966943;30;19949;-69
2022/09/09 02:17:19;;;;;;;;;;;;;;;14.02;89.56;100758.09;1964097;30;20311;-69
2022/09/09 02:18:36;;;;;;;;;;;;;;;13.99;90.05;100754.19;1963622;30;19934;-71
2022/09/09 02:19:41;;;;;;;;;;;;;;;13.98;89.76;100749.13;1966793;30;20347;-71
2022/09/09 02:21:08;;;;;;;;;;;;;;;13.97;90.24;100753.75;1974181;29;19937;-71
2022/09/09 02:22:09;;;;;;;;;;;;;;;13.95;90.23;100752.56;1974399;30;19934;-72
2022/09/09 02:23:13;;;;;;;;;;;;;;;13.95;90.03;100752.56;1974691;30;20008;-71
2022/09/09 02:24:16;;;;;;;;;;;;;;;13.93;90.15;100747.50;1971014;30;19979;-71
2022/09/09 02:25:27;;;;;;;;;;;;;;;13.92;89.89;100759.50;1958110;30;19966;-71
2022/09/09 02:26:35;;;;;;;;;;;;;;;13.91;90.03;100749.00;1963430;30;20086;-71
2022/09/09 02:27:44;;;;;;;;;;;;;;;13.91;90.31;100746.28;1962490;30;19943;-71
2022/09/09 02:28:48;;;;;;;;;;;;;;;13.90;89.90;100755.59;1968772;30;19988;-71
2022/09/09 02:29:52;;;;;;;;;;;;;;;13.89;90.60;100754.03;1966378;30;20045;-71
2022/09/09 02:31:06;;;;;;;;;;;;;;;13.88;90.72;100755.16;1964353;30;19930;-70
2022/09/09 02:32:18;;;;;;;;;;;;;;;13.86;90.40;100760.94;1971570;30;19925;-71
2022/09/09 02:33:23;;;;;;;;;;;;;;;13.86;90.67;100757.47;1964268;30;19926;-70
2022/09/09 02:34:28;;;;;;;;;;;;;;;13.84;90.93;100757.06;1963522;30;19961;-70
2022/09/09 02:35:31;;;;;;;;;;;;;;;13.82;90.45;100751.19;1957001;30;19926;-71
2022/09/09 02:36:37;;;;;;;;;;;;;;;13.81;90.17;100760.50;1956755;30;20466;-71
2022/09/09 02:37:41;;;;;;;;;;;;;;;13.81;90.54;100755.81;1961538;30;19926;-71
2022/09/09 02:38:50;;;;;;;;;;;;;;;13.78;90.30;100756.56;1964769;30;20323;-71
2022/09/09 02:39:54;;;;;;;;;;;;;;;13.79;91.19;100751.94;1958664;30;19980;-71
2022/09/09 02:40:58;;;;;;;;;;;;;;;13.78;90.93;100742.22;1965292;30;19930;-71
2022/09/09 02:42:00;;;;;;;;;;;;;;;13.77;91.06;100751.50;1954280;30;19926;-71
2022/09/09 02:43:07;;;;;;;;;;;;;;;13.76;91.02;100747.22;1965989;30;19988;-71
2022/09/09 02:44:12;;;;;;;;;;;;;;;13.77;90.22;100751.50;1978196;30;20398;-71
2022/09/09 02:45:17;;;;;;;;;;;;;;;13.76;90.63;100749.94;1978721;29;19997;-71
2022/09/09 02:46:38;;;;;;;;;;;;;;;13.74;90.74;100749.50;1968177;30;19988;-71
2022/09/09 02:47:49;;;;;;;;;;;;;;;13.74;90.87;100753.03;1957049;30;19930;-71
2022/09/09 02:48:55;;;;;;;;;;;;;;;13.74;90.81;100752.22;1964124;30;19930;-71
2022/09/09 02:50:06;;;;;;;;;;;;;;;13.73;91.07;100756.09;1970150;30;19926;-71
2022/09/09 02:51:14;;;;;;;;;;;;;;;13.73;90.83;100756.84;1960024;30;19942;-72
2022/09/09 02:52:20;;;;;;;;;;;;;;;13.73;91.05;100753.38;1965678;29;19937;-71
2022/09/09 02:53:24;;;;;;;;;;;;;;;13.71;91.31;100753.75;1978938;30;19953;-72
2022/09/09 02:54:30;;;;;;;;;;;;;;;13.70;90.58;100746.72;1968596;30;20024;-72
2022/09/09 02:55:38;;;;;;;;;;;;;;;13.70;90.39;100749.44;1965155;30;19926;-72
2022/09/09 02:56:47;;;;;;;;;;;;;;;13.70;90.70;100746.72;1968353;30;19926;-72
2022/09/09 02:57:50;;;;;;;;;;;;;;;13.66;90.64;100745.13;1956330;30;19930;-72
2022/09/09 02:58:54;;;;;;;;;;;;;;;13.69;90.62;100749.81;1958653;30;19935;-72
2022/09/09 02:59:58;;;;;;;;;;;;;;;13.69;91.23;100750.59;1978364;29;20443;-72
2022/09/09 03:01:10;;;;;;;;;;;;;;;13.68;91.35;100756.41;1979317;30;20433;-69
2022/09/09 03:02:12;;;;;;;;;;;;;;;13.67;91.15;100749.41;1976039;29;19933;-69
2022/09/09 03:03:19;;;;;;;;;;;;;;;13.66;91.08;100755.97;1975744;30;19937;-69
2022/09/09 03:04:24;;;;;;;;;;;;;;;13.65;91.79;100754.41;1962252;30;19934;-69
2022/09/09 03:05:27;;;;;;;;;;;;;;;13.64;91.32;100748.19;1959826;30;19937;-70
2022/09/09 03:06:30;;;;;;;;;;;;;;;13.62;91.31;100753.19;1972825;30;19975;-69
2022/09/09 03:07:41;;;;;;;;;;;;;;;13.60;91.35;100754.72;1971003;30;19937;-70
2022/09/09 03:08:44;;;;;;;;;;;;;;;13.57;91.71;100762.41;1953766;30;19926;-69
2022/09/09 03:09:54;;;;;;;;;;;;;;;13.56;91.43;100756.59;1962845;30;20454;-69
2022/09/09 03:11:01;;;;;;;;;;;;;;;13.53;91.43;100750.75;1965765;30;20120;-69
2022/09/09 03:12:07;;;;;;;;;;;;;;;13.52;91.96;100741.00;1961396;30;19930;-70
2022/09/09 03:13:12;;;;;;;;;;;;;;;13.50;91.96;100754.19;1965814;30;20021;-69
2022/09/09 03:14:15;;;;;;;;;;;;;;;13.48;92.27;100750.25;1965389;30;20012;-69
2022/09/09 03:15:19;;;;;;;;;;;;;;;13.47;92.10;100744.06;1964559;30;19971;-69
2022/09/09 03:16:22;;;;;;;;;;;;;;;13.47;92.19;100754.91;1966952;30;19937;-69
2022/09/09 03:17:27;;;;;;;;;;;;;;;13.46;92.47;100753.31;1964261;30;19930;-70
2022/09/09 03:18:31;;;;;;;;;;;;;;;13.43;92.01;100754.03;1963444;30;19926;-70
2022/09/09 03:19:35;;;;;;;;;;;;;;;13.43;92.13;100748.63;1967909;29;20155;-69
2022/09/09 03:20:38;;;;;;;;;;;;;;;13.41;91.87;100748.19;1974396;30;20024;-68
2022/09/09 03:21:40;;;;;;;;;;;;;;;13.41;92.09;100742.75;1971221;30;19929;-68
2022/09/09 03:22:43;;;;;;;;;;;;;;;13.41;92.40;100748.19;1971633;30;19982;-69
2022/09/09 03:23:46;;;;;;;;;;;;;;;13.42;91.64;100743.56;1970199;30;20030;-69
2022/09/09 03:24:50;;;;;;;;;;;;;;;13.43;92.44;100751.31;1965485;30;19956;-69
2022/09/09 03:25:54;;;;;;;;;;;;;;;13.42;92.49;100747.06;1967476;30;20013;-69
2022/09/09 03:27:04;;;;;;;;;;;;;;;13.43;92.63;100743.19;1970223;30;20026;-69
2022/09/09 03:28:06;;;;;;;;;;;;;;;13.42;92.09;100747.06;1969604;30;19934;-69
2022/09/09 03:29:09;;;;;;;;;;;;;;;13.42;92.60;100748.97;1958158;30;20025;-69
2022/09/09 03:30:11;;;;;;;;;;;;;;;13.42;92.36;100741.63;1965214;30;20412;-69
2022/09/09 03:31:15;;;;;;;;;;;;;;;13.43;92.67;100743.19;1968329;30;20411;-69
2022/09/09 03:32:17;;;;;;;;;;;;;;;13.43;92.04;100745.91;1972197;30;19933;-69
2022/09/09 03:33:20;;;;;;;;;;;;;;;13.43;92.61;100743.19;1968589;30;19929;-69
2022/09/09 03:34:21;;;;;;;;;;;;;;;13.43;92.05;100743.19;1963003;30;19932;-69
2022/09/09 03:35:25;;;;;;;;;;;;;;;13.45;92.13;100740.91;1966530;30;19934;-69
2022/09/09 03:36:27;;;;;;;;;;;;;;;13.46;92.44;100741.72;1971099;30;19933;-69
2022/09/09 03:37:29;;;;;;;;;;;;;;;13.45;92.61;100746.34;1966205;30;20417;-69
2022/09/09 03:38:33;;;;;;;;;;;;;;;13.44;92.69;100742.06;1971454;30;20367;-69
2022/09/09 03:39:35;;;;;;;;;;;;;;;13.44;92.86;100735.84;1969657;30;20328;-69
2022/09/09 03:40:37;;;;;;;;;;;;;;;13.44;92.20;100742.06;1969577;29;19933;-69
2022/09/09 03:41:39;;;;;;;;;;;;;;;13.44;92.66;100744.78;1974993;29;19983;-69
2022/09/09 03:42:42;;;;;;;;;;;;;;;13.45;92.94;100740.91;1964783;30;19937;-68
2022/09/09 03:43:44;;;;;;;;;;;;;;;13.44;92.53;100746.69;1966774;30;19934;-69
2022/09/09 03:44:47;;;;;;;;;;;;;;;13.45;91.97;100740.91;1972690;30;19936;-68
2022/09/09 03:45:49;;;;;;;;;;;;;;;13.45;92.43;100745.53;1967294;30;20302;-69
2022/09/09 03:46:53;;;;;;;;;;;;;;;13.44;92.18;100742.06;1969917;30;20368;-69
2022/09/09 03:47:56;;;;;;;;;;;;;;;13.45;92.53;100740.13;1978273;30;19933;-68
2022/09/09 03:48:59;;;;;;;;;;;;;;;13.45;92.69;100743.63;1963034;30;19934;-68
2022/09/09 03:50:01;;;;;;;;;;;;;;;13.45;92.75;100742.84;1963450;30;20017;-68
2022/09/09 03:51:04;;;;;;;;;;;;;;;13.45;92.93;100751.75;1979064;29;19929;-68
2022/09/09 03:52:08;;;;;;;;;;;;;;;13.44;93.03;100749.41;1958041;30;19933;-68
2022/09/09 03:53:11;;;;;;;;;;;;;;;13.45;92.55;100746.34;1958219;30;20403;-69
2022/09/09 03:54:13;;;;;;;;;;;;;;;13.45;93.14;100745.53;1971682;30;20461;-68
2022/09/09 03:55:15;;;;;;;;;;;;;;;13.45;93.31;100740.91;1971922;30;19929;-69
2022/09/09 03:56:18;;;;;;;;;;;;;;;13.45;93.24;100746.34;1971993;30;19929;-68
2022/09/09 03:57:21;;;;;;;;;;;;;;;13.44;92.50;100747.50;1971964;30;19929;-68
2022/09/09 03:58:24;;;;;;;;;;;;;;;13.45;93.00;100746.34;1965164;30;20437;-68
2022/09/09 03:59:28;;;;;;;;;;;;;;;13.46;93.15;100752.56;1963686;30;20443;-68
2022/09/09 04:00:30;;;;;;;;;;;;;;;13.47;92.80;100754.09;1966525;30;19940;-68
2022/09/09 04:01:33;;;;;;;;;;;;;;;13.46;93.01;100750.59;1964877;30;20429;-68
2022/09/09 04:02:36;;;;;;;;;;;;;;;13.46;93.24;100747.91;1977015;30;19933;-68
2022/09/09 04:03:38;;;;;;;;;;;;;;;13.47;92.88;100748.69;1981441;29;19966;-67
2022/09/09 04:04:41;;;;;;;;;;;;;;;13.47;92.69;100748.69;1973303;30;20454;-68
2022/09/09 04:05:45;;;;;;;;;;;;;;;13.48;93.15;100755.66;1961209;30;20443;-67
2022/09/09 04:06:48;;;;;;;;;;;;;;;13.48;92.66;100751.03;1960059;30;19977;-67
2022/09/09 04:07:51;;;;;;;;;;;;;;;13.50;92.96;100756.88;1972429;30;20364;-69
2022/09/09 04:08:54;;;;;;;;;;;;;;;13.50;93.60;100759.59;1974293;29;20406;-68
2022/09/09 04:09:57;;;;;;;;;;;;;;;13.52;93.22;100753.81;1971768;30;19926;-70
2022/09/09 04:11:01;;;;;;;;;;;;;;;13.51;93.03;100747.59;1961733;30;19934;-69
2022/09/09 04:12:04;;;;;;;;;;;;;;;13.52;93.62;100748.38;1965491;30;20026;-69
2022/09/09 04:13:07;;;;;;;;;;;;;;;13.52;93.69;100751.88;1964983;30;19930;-68
2022/09/09 04:14:09;;;;;;;;;;;;;;;13.51;93.68;100753.03;1965627;30;19933;-69
2022/09/09 04:15:12;;;;;;;;;;;;;;;13.51;93.84;100750.31;1980531;29;19936;-68
2022/09/09 04:16:14;;;;;;;;;;;;;;;13.51;93.15;100750.31;1965957;30;20049;-68
2022/09/09 04:17:18;;;;;;;;;;;;;;;13.53;93.77;100747.22;1969554;30;19926;-69
2022/09/09 04:18:21;;;;;;;;;;;;;;;13.52;94.04;100746.44;1967875;30;19930;-69
2022/09/09 04:19:24;;;;;;;;;;;;;;;13.54;93.42;100743.41;1965387;30;19934;-68
2022/09/09 04:20:26;;;;;;;;;;;;;;;13.54;93.59;100743.41;1961406;30;19926;-69
2022/09/09 04:21:29;;;;;;;;;;;;;;;13.54;93.93;100741.44;1960411;30;20007;-69
2022/09/09 04:22:31;;;;;;;;;;;;;;;13.57;94.19;100743.44;1971354;30;19930;-67
2022/09/09 04:23:35;;;;;;;;;;;;;;;13.57;94.00;100741.88;1978283;30;19929;-67
2022/09/09 04:24:38;;;;;;;;;;;;;;;13.57;93.94;100739.16;1970900;30;19929;-68
2022/09/09 04:25:44;;;;;;;;;;;;;;;13.58;94.20;100744.22;1972100;30;20020;-67
2022/09/09 04:26:47;;;;;;;;;;;;;;;13.59;94.05;100739.59;1971443;30;20028;-67
2022/09/09 04:27:54;;;;;;;;;;;;;;;13.59;93.77;100745.00;1959234;30;19973;-67
2022/09/09 04:28:56;;;;;;;;;;;;;;;13.60;93.99;100746.56;1972468;30;19944;-68
2022/09/09 04:29:59;;;;;;;;;;;;;;;13.61;93.92;100742.69;1969341;30;19930;-68
2022/09/09 04:31:05;;;;;;;;;;;;;;;13.61;93.91;100742.69;1964760;30;20416;-68
2022/09/09 04:32:08;;;;;;;;;;;;;;;13.61;94.16;100743.50;1972044;30;19970;-68
2022/09/09 04:33:10;;;;;;;;;;;;;;;13.64;94.64;100742.75;1979826;29;19993;-69
2022/09/09 04:34:14;;;;;;;;;;;;;;;13.65;94.61;100733.50;1966579;30;19951;-69
2022/09/09 04:35:16;;;;;;;;;;;;;;;13.65;94.77;100735.41;1964333;30;19980;-68
2022/09/09 04:36:19;;;;;;;;;;;;;;;13.64;94.36;100737.34;1971755;30;19967;-68
2022/09/09 04:37:24;;;;;;;;;;;;;;;13.65;94.53;100733.50;1974076;29;20418;-68
2022/09/09 04:38:27;;;;;;;;;;;;;;;13.66;94.57;100736.97;1983973;29;19977;-68
2022/09/09 04:39:29;;;;;;;;;;;;;;;13.67;94.43;100738.56;1974638;30;19925;-68
2022/09/09 04:40:34;;;;;;;;;;;;;;;13.68;94.26;100751.75;1964322;30;19930;-68
2022/09/09 04:41:37;;;;;;;;;;;;;;;13.68;94.45;100748.25;1959826;30;20303;-68
2022/09/09 04:42:43;;;;;;;;;;;;;;;13.69;94.53;100744.38;1960003;30;20481;-69
2022/09/09 04:43:48;;;;;;;;;;;;;;;13.66;94.38;100750.53;1965743;30;19973;-67
2022/09/09 04:44:52;;;;;;;;;;;;;;;13.67;94.38;100741.28;1971864;30;19936;-69
2022/09/09 04:45:53;;;;;;;;;;;;;;;13.67;94.80;100752.88;1966186;30;19982;-67
2022/09/09 04:46:59;;;;;;;;;;;;;;;13.65;94.42;100743.56;1957344;30;20445;-67
2022/09/09 04:48:02;;;;;;;;;;;;;;;13.68;94.31;100748.25;1963441;30;19926;-67
2022/09/09 04:49:05;;;;;;;;;;;;;;;13.67;94.50;100757.56;1968651;30;20402;-67
2022/09/09 04:50:10;;;;;;;;;;;;;;;13.66;94.17;100755.97;1964736;30;19974;-67
2022/09/09 04:51:15;;;;;;;;;;;;;;;13.67;94.00;100746.69;1977627;29;19933;-67
2022/09/09 04:52:20;;;;;;;;;;;;;;;13.66;94.41;100751.34;1980321;29;19937;-69
2022/09/09 04:53:25;;;;;;;;;;;;;;;13.65;94.43;100752.50;1974514;30;19930;-68
2022/09/09 04:54:29;;;;;;;;;;;;;;;13.68;94.21;100748.25;1962732;30;20415;-68
2022/09/09 04:55:34;;;;;;;;;;;;;;;13.65;93.79;100749.78;1968617;30;19975;-69
2022/09/09 04:56:38;;;;;;;;;;;;;;;13.64;94.15;100753.63;1964861;30;19936;-68
2022/09/09 04:57:41;;;;;;;;;;;;;;;13.66;93.88;100748.63;1971381;30;20301;-68
2022/09/09 04:58:45;;;;;;;;;;;;;;;13.64;93.81;100752.84;1963939;30;19969;-68
2022/09/09 04:59:49;;;;;;;;;;;;;;;13.66;93.89;100745.13;1961720;30;20016;-68
2022/09/09 05:00:51;;;;;;;;;;;;;;;13.67;94.68;100752.13;1970273;30;19985;-69
2022/09/09 05:01:55;;;;;;;;;;;;;;;13.64;94.39;100753.63;1959033;30;20442;-68
2022/09/09 05:02:57;;;;;;;;;;;;;;;13.64;94.15;100759.03;1958744;30;20312;-68
2022/09/09 05:04:00;;;;;;;;;;;;;;;13.66;94.32;100751.34;1959045;30;20007;-68
2022/09/09 05:05:01;;;;;;;;;;;;;;;13.64;94.26;100752.84;1959565;30;19983;-68
2022/09/09 05:06:08;;;;;;;;;;;;;;;13.65;93.80;100749.00;1986121;29;19929;-69
2022/09/09 05:07:10;;;;;;;;;;;;;;;13.65;94.50;100744.34;1975022;30;20103;-69
2022/09/09 05:08:15;;;;;;;;;;;;;;;13.65;94.87;100744.34;1960820;30;19942;-68
2022/09/09 05:09:18;;;;;;;;;;;;;;;13.65;94.21;100759.84;1963116;30;20518;-68
2022/09/09 05:10:22;;;;;;;;;;;;;;;13.67;94.23;100757.56;1969363;30;19933;-69
2022/09/09 05:11:24;;;;;;;;;;;;;;;13.66;94.44;100751.34;1965197;30;20460;-68
2022/09/09 05:12:28;;;;;;;;;;;;;;;13.67;94.51;100757.56;1972090;30;19925;-68
2022/09/09 05:13:31;;;;;;;;;;;;;;;13.68;93.99;100748.25;1976698;29;19929;-68
2022/09/09 05:14:35;;;;;;;;;;;;;;;13.68;94.45;100749.06;1968500;30;19930;-69
2022/09/09 05:15:37;;;;;;;;;;;;;;;13.69;94.51;100756.03;1964088;30;20040;-68
2022/09/09 05:16:40;;;;;;;;;;;;;;;13.69;94.52;100749.81;1964461;30;20315;-69
2022/09/09 05:17:42;;;;;;;;;;;;;;;13.73;94.20;100747.97;1964709;30;19937;-69
2022/09/09 05:18:45;;;;;;;;;;;;;;;13.72;94.45;100743.66;1967208;30;19925;-69
2022/09/09 05:19:47;;;;;;;;;;;;;;;13.73;94.70;100750.66;1960303;30;19939;-70
2022/09/09 05:20:51;;;;;;;;;;;;;;;13.73;94.47;100745.25;1969579;30;20020;-67
2022/09/09 05:21:54;;;;;;;;;;;;;;;13.75;94.50;100745.66;1968313;30;19926;-67
2022/09/09 05:23:02;;;;;;;;;;;;;;;13.75;94.37;100743.72;1965577;30;19945;-68
2022/09/09 05:24:06;;;;;;;;;;;;;;;13.78;94.94;100750.38;1963375;30;19930;-67
2022/09/09 05:25:09;;;;;;;;;;;;;;;13.77;94.76;100748.78;1953267;30;19930;-68
2022/09/09 05:26:13;;;;;;;;;;;;;;;13.81;94.55;100749.63;1955272;30;19966;-68
2022/09/09 05:27:21;;;;;;;;;;;;;;;13.81;94.55;100757.78;1952146;30;19934;-69
2022/09/09 05:28:24;;;;;;;;;;;;;;;13.81;94.96;100755.06;1959658;30;19930;-68
2022/09/09 05:29:27;;;;;;;;;;;;;;;13.81;94.59;100755.81;1963680;30;20059;-68
2022/09/09 05:30:30;;;;;;;;;;;;;;;13.85;95.17;100758.59;1957828;30;19930;-68
2022/09/09 05:31:35;;;;;;;;;;;;;;;13.85;94.98;100751.25;1965882;30;19925;-68
2022/09/09 05:32:43;;;;;;;;;;;;;;;13.86;94.73;100765.63;1958348;30;20388;-67
2022/09/09 05:33:49;;;;;;;;;;;;;;;13.87;95.02;100761.75;1957552;30;20019;-67
2022/09/09 05:34:52;;;;;;;;;;;;;;;13.89;94.89;100759.47;1968540;29;19930;-68
2022/09/09 05:35:58;;;;;;;;;;;;;;;13.88;94.53;100764.09;1972697;30;19930;-68
2022/09/09 05:37:01;;;;;;;;;;;;;;;13.90;94.50;100752.88;1969129;30;19937;-68